createdAt,value
2019-02-27T00:00:04.682Z,101560.61
2019-02-27T00:00:59.070Z,101560.61
2019-02-27T00:01:37.061Z,101553.77
2019-02-27T00:02:12.461Z,101558.92
2019-02-27T00:02:47.862Z,101555.92
2019-02-27T00:03:23.240Z,101552.91
2019-02-27T00:04:02.093Z,101552.91
2019-02-27T00:04:35.978Z,101547.36
2019-02-27T00:05:11.355Z,101551.66
2019-02-27T00:05:46.765Z,101554.23
2019-02-27T00:06:22.477Z,101554.23
2019-02-27T00:06:58.062Z,101544.39
2019-02-27T00:07:33.732Z,101553.38
2019-02-27T00:08:10.148Z,101552.55
2019-02-27T00:08:47.301Z,101551.25
2019-02-27T00:09:22.966Z,101555.98
2019-02-27T00:09:58.334Z,101555.98
2019-02-27T00:10:33.746Z,101558.52
2019-02-27T00:11:09.924Z,101554.69
2019-02-27T00:11:47.074Z,101554.69
2019-02-27T00:12:22.441Z,101562.84
2019-02-27T00:12:57.853Z,101559.83
2019-02-27T00:13:33.232Z,101550.85
2019-02-27T00:14:08.679Z,101561.58
2019-02-27T00:14:44.077Z,101561.58
2019-02-27T00:15:19.812Z,101557.66
2019-02-27T00:15:55.220Z,101560.72
2019-02-27T00:16:30.596Z,101553.84
2019-02-27T00:17:08.246Z,101558.56
2019-02-27T00:17:43.411Z,101558.56
2019-02-27T00:18:18.819Z,101558.16
2019-02-27T00:18:58.592Z,101558.16
2019-02-27T00:19:31.937Z,101553.46
2019-02-27T00:20:08.641Z,101553.03
2019-02-27T00:20:44.004Z,101559.89
2019-02-27T00:21:19.453Z,101559.47
2019-02-27T00:21:54.834Z,101558.61
2019-02-27T00:22:30.207Z,101556.03
2019-02-27T00:23:05.868Z,101556.03
2019-02-27T00:23:41.346Z,101552.60
2019-02-27T00:24:16.829Z,101557.31
2019-02-27T00:24:52.229Z,101559.46
2019-02-27T00:25:27.961Z,101559.46
2019-02-27T00:26:03.903Z,101559.92
2019-02-27T00:26:39.537Z,101559.92
2019-02-27T00:27:16.406Z,101553.06
2019-02-27T00:27:52.049Z,101559.05
2019-02-27T00:28:27.767Z,101559.05
2019-02-27T00:29:03.405Z,101565.49
2019-02-27T00:29:39.051Z,101556.94
2019-02-27T00:30:14.754Z,101556.94
2019-02-27T00:30:50.135Z,101548.34
2019-02-27T00:31:25.647Z,101548.78
2019-02-27T00:32:01.115Z,101548.78
2019-02-27T00:32:36.542Z,101557.80
2019-02-27T00:33:12.022Z,101561.64
2019-02-27T00:33:47.688Z,101554.78
2019-02-27T00:34:23.647Z,101553.50
2019-02-27T00:34:59.434Z,101558.23
2019-02-27T00:35:38.846Z,101557.38
2019-02-27T00:36:12.950Z,101557.38
2019-02-27T00:36:48.684Z,101554.80
2019-02-27T00:37:24.118Z,101559.08
2019-02-27T00:37:59.524Z,101558.22
2019-02-27T00:38:35.552Z,101558.22
2019-02-27T00:39:12.751Z,101560.80
2019-02-27T00:39:48.131Z,101556.94
2019-02-27T00:40:23.804Z,101556.10
2019-02-27T00:40:59.476Z,101556.10
2019-02-27T00:41:34.875Z,101561.66
2019-02-27T00:42:10.838Z,101561.66
2019-02-27T00:42:46.258Z,101557.36
2019-02-27T00:43:21.642Z,101557.36
2019-02-27T00:44:01.042Z,101559.52
2019-02-27T00:44:34.900Z,101546.66
2019-02-27T00:45:10.886Z,101546.66
2019-02-27T00:45:46.535Z,101546.66
2019-02-27T00:46:22.273Z,101550.51
2019-02-27T00:46:57.672Z,101550.07
2019-02-27T00:47:33.063Z,101550.07
2019-02-27T00:48:08.781Z,101550.95
2019-02-27T00:48:44.220Z,101552.64
2019-02-27T00:49:19.992Z,101552.64
2019-02-27T00:49:55.621Z,101545.78
2019-02-27T00:50:31.042Z,101545.78
2019-02-27T00:51:06.480Z,101542.77
2019-02-27T00:51:44.715Z,101542.77
2019-02-27T00:52:19.627Z,101548.36
2019-02-27T00:52:55.341Z,101546.66
2019-02-27T00:53:30.725Z,101546.66
2019-02-27T00:54:06.394Z,101549.20
2019-02-27T00:54:42.105Z,101537.23
2019-02-27T00:55:17.515Z,101537.23
2019-02-27T00:55:53.229Z,101546.66
2019-02-27T00:56:29.187Z,101539.36
2019-02-27T00:57:04.672Z,101539.80
2019-02-27T00:57:40.367Z,101540.64
2019-02-27T00:58:15.918Z,101540.64
2019-02-27T00:58:51.559Z,101545.36
2019-02-27T00:59:26.990Z,101540.24
2019-02-27T01:00:06.269Z,101542.36
2019-02-27T01:00:40.135Z,101542.36
2019-02-27T01:01:16.104Z,101544.07
2019-02-27T01:01:51.608Z,101540.23
2019-02-27T01:02:26.998Z,101540.23
2019-02-27T01:03:02.757Z,101551.38
2019-02-27T01:03:38.453Z,101551.38
2019-02-27T01:04:13.884Z,101545.81
2019-02-27T01:04:49.862Z,101538.10
2019-02-27T01:05:25.667Z,101545.37
2019-02-27T01:06:01.107Z,101545.37
2019-02-27T01:06:36.553Z,101541.08
2019-02-27T01:07:12.200Z,101541.09
2019-02-27T01:07:47.943Z,101541.09
2019-02-27T01:08:25.084Z,101545.38
2019-02-27T01:09:00.511Z,101544.52
2019-02-27T01:09:37.192Z,101541.52
2019-02-27T01:10:13.429Z,101541.52
2019-02-27T01:10:49.086Z,101542.36
2019-02-27T01:11:24.530Z,101540.68
2019-02-27T01:12:00.033Z,101540.68
2019-02-27T01:12:35.976Z,101537.66
2019-02-27T01:13:11.836Z,101538.94
2019-02-27T01:13:47.245Z,101538.94
2019-02-27T01:14:22.648Z,101545.37
2019-02-27T01:14:58.044Z,101545.37
2019-02-27T01:15:33.438Z,101540.22
2019-02-27T01:16:08.853Z,101534.22
2019-02-27T01:16:44.935Z,101536.79
2019-02-27T01:17:23.463Z,101535.52
2019-02-27T01:17:58.165Z,101546.66
2019-02-27T01:18:33.875Z,101541.53
2019-02-27T01:19:09.318Z,101538.52
2019-02-27T01:19:44.890Z,101533.39
2019-02-27T01:20:20.289Z,101535.95
2019-02-27T01:20:55.772Z,101535.95
2019-02-27T01:21:31.158Z,101537.66
2019-02-27T01:22:06.666Z,101531.22
2019-02-27T01:22:42.086Z,101537.23
2019-02-27T01:23:17.527Z,101537.23
2019-02-27T01:23:53.249Z,101534.23
2019-02-27T01:24:28.909Z,101536.39
2019-02-27T01:25:05.058Z,101532.93
2019-02-27T01:25:40.768Z,101531.22
2019-02-27T01:26:16.154Z,101535.95
2019-02-27T01:26:51.975Z,101540.66
2019-02-27T01:27:27.397Z,101530.78
2019-02-27T01:28:02.785Z,101530.78
2019-02-27T01:28:38.205Z,101530.37
2019-02-27T01:29:15.713Z,101530.35
2019-02-27T01:29:51.796Z,101532.05
2019-02-27T01:30:27.274Z,101533.33
2019-02-27T01:31:02.691Z,101537.63
2019-02-27T01:31:38.084Z,101527.34
2019-02-27T01:32:13.512Z,101527.34
2019-02-27T01:32:49.195Z,101525.63
2019-02-27T01:33:24.620Z,101526.05
2019-02-27T01:34:00.098Z,101527.35
2019-02-27T01:34:35.742Z,101522.21
2019-02-27T01:35:12.196Z,101524.78
2019-02-27T01:35:51.323Z,101525.20
2019-02-27T01:36:25.748Z,101525.64
2019-02-27T01:37:01.307Z,101522.22
2019-02-27T01:37:36.688Z,101526.48
2019-02-27T01:38:12.173Z,101526.49
2019-02-27T01:38:47.627Z,101526.49
2019-02-27T01:39:23.061Z,101520.48
2019-02-27T01:39:58.491Z,101520.48
2019-02-27T01:40:33.892Z,101523.92
2019-02-27T01:41:09.546Z,101516.20
2019-02-27T01:41:44.955Z,101521.34
2019-02-27T01:42:20.437Z,101513.66
2019-02-27T01:42:56.189Z,101519.66
2019-02-27T01:43:31.592Z,101511.93
2019-02-27T01:44:07.003Z,101511.93
2019-02-27T01:44:46.572Z,101517.93
2019-02-27T01:45:21.795Z,101516.64
2019-02-27T01:45:57.435Z,101513.63
2019-02-27T01:46:32.841Z,101514.05
2019-02-27T01:47:08.373Z,101514.05
2019-02-27T01:47:44.035Z,101516.63
2019-02-27T01:48:19.469Z,101513.65
2019-02-27T01:48:55.205Z,101504.21
2019-02-27T01:49:30.626Z,101510.21
2019-02-27T01:50:25.030Z,101514.51
2019-02-27T01:51:00.412Z,101514.51
2019-02-27T01:51:36.059Z,101507.22
2019-02-27T01:52:11.763Z,101505.93
2019-02-27T01:52:47.514Z,101507.65
2019-02-27T01:53:22.973Z,101505.92
2019-02-27T01:53:58.660Z,101511.92
2019-02-27T01:54:34.582Z,101506.78
2019-02-27T01:55:09.977Z,101506.78
2019-02-27T01:55:45.366Z,101508.48
2019-02-27T01:56:20.808Z,101508.94
2019-02-27T01:56:56.306Z,101500.78
2019-02-27T01:57:34.134Z,101500.78
2019-02-27T01:58:10.148Z,101512.34
2019-02-27T01:58:45.563Z,101506.33
2019-02-27T01:59:21.902Z,101506.33
2019-02-27T01:59:57.614Z,101506.73
2019-02-27T02:00:33.158Z,101506.31
2019-02-27T02:01:09.126Z,101501.59
2019-02-27T02:01:44.815Z,101507.60
2019-02-27T02:02:20.520Z,101507.60
2019-02-27T02:02:56.250Z,101507.60
2019-02-27T02:03:32.597Z,101506.33
2019-02-27T02:04:08.033Z,101502.91
2019-02-27T02:04:43.768Z,101494.33
2019-02-27T02:05:19.910Z,101494.33
2019-02-27T02:05:59.043Z,101496.47
2019-02-27T02:06:33.053Z,101496.47
2019-02-27T02:07:08.443Z,101493.49
2019-02-27T02:07:46.756Z,101490.91
2019-02-27T02:08:22.144Z,101501.17
2019-02-27T02:09:31.928Z,101499.05
2019-02-27T02:10:08.320Z,101496.47
2019-02-27T02:10:44.011Z,101488.74
2019-02-27T02:11:19.743Z,101488.74
2019-02-27T02:11:55.414Z,101492.60
2019-02-27T02:12:32.942Z,101492.60
2019-02-27T02:13:17.611Z,101490.05
2019-02-27T02:14:03.753Z,101488.77
2019-02-27T02:15:12.308Z,101490.47
2019-02-27T02:16:42.273Z,101487.03
2019-02-27T02:17:53.796Z,101487.03
2019-02-27T02:19:06.420Z,101482.78
2019-02-27T02:20:20.033Z,101483.64
2019-02-27T02:21:45.161Z,101480.64
2019-02-27T02:23:05.061Z,101481.08
2019-02-27T02:24:29.308Z,101477.20
2019-02-27T02:25:52.376Z,101474.64
2019-02-27T02:27:13.885Z,101470.38
2019-02-27T02:28:32.604Z,101469.08
2019-02-27T02:29:33.444Z,101469.05
2019-02-27T02:30:55.811Z,101462.62
2019-02-27T02:31:54.308Z,101466.91
2019-02-27T02:32:58.930Z,101468.61
2019-02-27T02:34:06.381Z,101472.03
2019-02-27T02:34:51.894Z,101472.05
2019-02-27T02:35:51.791Z,101466.48
2019-02-27T02:36:40.984Z,101465.21
2019-02-27T02:37:38.231Z,101470.75
2019-02-27T02:38:21.827Z,101461.77
2019-02-27T02:39:06.598Z,101455.77
2019-02-27T02:40:12.889Z,101460.05
2019-02-27T02:41:31.814Z,101463.04
2019-02-27T02:42:24.317Z,101462.62
2019-02-27T02:43:41.550Z,101455.77
2019-02-27T02:44:57.675Z,101460.88
2019-02-27T02:45:40.200Z,101456.17
2019-02-27T02:46:50.273Z,101454.46
2019-02-27T02:47:49.013Z,101454.05
2019-02-27T02:48:56.481Z,101454.06
2019-02-27T02:50:19.088Z,101454.48
2019-02-27T02:51:44.633Z,101456.19
2019-02-27T02:52:41.715Z,101451.05
2019-02-27T02:54:00.815Z,101451.92
2019-02-27T02:55:21.078Z,101449.37
2019-02-27T02:56:12.507Z,101452.78
2019-02-27T02:57:40.600Z,101451.89
2019-02-27T02:58:48.443Z,101455.34
2019-02-27T03:00:09.181Z,101451.89
2019-02-27T03:01:13.922Z,101447.63
2019-02-27T03:01:52.846Z,101448.87
2019-02-27T03:03:01.933Z,101441.59
2019-02-27T03:03:53.144Z,101441.59
2019-02-27T03:05:08.475Z,101445.03
2019-02-27T03:06:16.522Z,101436.94
2019-02-27T03:07:47.824Z,101440.81
2019-02-27T03:09:09.204Z,101436.08
2019-02-27T03:10:42.533Z,101436.52
2019-02-27T03:11:54.753Z,101436.94
2019-02-27T03:12:47.539Z,101438.63
2019-02-27T03:14:07.017Z,101435.64
2019-02-27T03:15:13.128Z,101433.92
2019-02-27T03:15:53.544Z,101434.79
2019-02-27T03:16:52.318Z,101428.38
2019-02-27T03:17:59.752Z,101430.46
2019-02-27T03:19:05.031Z,101430.06
2019-02-27T03:20:17.616Z,101424.05
2019-02-27T03:21:28.582Z,101426.20
2019-02-27T03:22:28.326Z,101425.80
2019-02-27T03:23:54.449Z,101421.54
2019-02-27T03:25:03.671Z,101425.38
2019-02-27T03:26:05.127Z,101425.37
2019-02-27T03:26:54.769Z,101418.49
2019-02-27T03:27:55.209Z,101419.78
2019-02-27T03:29:07.106Z,101418.94
2019-02-27T03:30:03.791Z,101418.94
2019-02-27T03:31:16.374Z,101417.63
2019-02-27T03:32:00.096Z,101421.05
2019-02-27T03:32:43.813Z,101420.61
2019-02-27T03:34:05.631Z,101420.59
2019-02-27T03:35:29.220Z,101422.73
2019-02-27T03:36:51.407Z,101423.59
2019-02-27T03:37:50.863Z,101422.34
2019-02-27T03:39:03.869Z,101413.30
2019-02-27T03:40:19.425Z,101413.33
2019-02-27T03:41:06.322Z,101420.14
2019-02-27T03:42:14.188Z,101420.58
2019-02-27T03:43:01.672Z,101420.98
2019-02-27T03:44:01.395Z,101418.81
2019-02-27T03:45:30.701Z,101421.83
2019-02-27T03:46:30.912Z,101421.38
2019-02-27T03:47:37.357Z,101421.78
2019-02-27T03:49:03.876Z,101420.47
2019-02-27T03:50:03.517Z,101421.33
2019-02-27T03:51:09.080Z,101420.02
2019-02-27T03:52:04.428Z,101419.16
2019-02-27T03:53:23.866Z,101417.86
2019-02-27T03:54:29.926Z,101420.41
2019-02-27T03:55:34.860Z,101417.42
2019-02-27T03:57:05.220Z,101418.25
2019-02-27T03:58:03.176Z,101404.56
2019-02-27T03:59:08.160Z,101408.42
2019-02-27T04:00:19.400Z,101410.56
2019-02-27T04:01:30.439Z,101408.42
2019-02-27T04:02:42.867Z,101412.22
2019-02-27T04:03:55.240Z,101407.52
2019-02-27T04:05:05.441Z,101409.66
2019-02-27T04:06:03.063Z,101410.92
2019-02-27T04:07:19.317Z,101410.91
2019-02-27T04:08:13.110Z,101402.40
2019-02-27T04:09:01.593Z,101407.92
2019-02-27T04:09:36.989Z,101401.50
2019-02-27T04:10:12.736Z,101406.63
2019-02-27T04:10:48.193Z,101401.94
2019-02-27T04:11:23.757Z,101410.05
2019-02-27T04:11:59.192Z,101398.50
2019-02-27T04:12:34.849Z,101398.48
2019-02-27T04:13:10.231Z,101401.90
2019-02-27T04:13:46.008Z,101400.62
2019-02-27T04:14:31.510Z,101398.89
2019-02-27T04:15:07.694Z,101403.60
2019-02-27T04:15:43.397Z,101402.78
2019-02-27T04:16:18.904Z,101396.77
2019-02-27T04:16:54.328Z,101397.18
2019-02-27T04:17:28.969Z,101396.77
2019-02-27T04:18:02.678Z,101401.90
2019-02-27T04:18:36.425Z,101403.18
2019-02-27T04:19:11.819Z,101408.71
2019-02-27T04:19:47.595Z,101407.86
2019-02-27T04:20:23.025Z,101404.88
2019-02-27T04:20:58.799Z,101399.72
2019-02-27T04:21:34.301Z,101408.32
2019-02-27T04:22:10.003Z,101407.43
2019-02-27T04:22:46.005Z,101407.86
2019-02-27T04:23:21.828Z,101405.70
2019-02-27T04:23:57.617Z,101407.42
2019-02-27T04:24:32.978Z,101410.42
2019-02-27T04:25:08.909Z,101403.11
2019-02-27T04:25:44.331Z,101413.36
2019-02-27T04:26:20.050Z,101413.34
2019-02-27T04:26:55.703Z,101409.94
2019-02-27T04:27:31.085Z,101412.06
2019-02-27T04:28:06.875Z,101412.05
2019-02-27T04:28:42.886Z,101412.48
2019-02-27T04:29:18.551Z,101407.34
2019-02-27T04:29:54.220Z,101417.20
2019-02-27T04:30:29.631Z,101402.70
2019-02-27T04:31:05.074Z,101412.92
2019-02-27T04:31:40.920Z,101406.53
2019-02-27T04:32:16.332Z,101412.06
2019-02-27T04:32:52.047Z,101413.75
2019-02-27T04:33:27.452Z,101412.06
2019-02-27T04:34:02.861Z,101409.08
2019-02-27T04:34:38.303Z,101409.92
2019-02-27T04:35:13.999Z,101409.92
2019-02-27T04:35:49.543Z,101403.06
2019-02-27T04:36:24.898Z,101410.80
2019-02-27T04:37:00.292Z,101410.34
2019-02-27T04:37:36.087Z,101410.37
2019-02-27T04:38:11.544Z,101410.81
2019-02-27T04:38:47.941Z,101408.19
2019-02-27T04:39:23.366Z,101415.05
2019-02-27T04:39:58.801Z,101415.91
2019-02-27T04:40:34.566Z,101409.94
2019-02-27T04:41:10.356Z,101412.48
2019-02-27T04:41:46.156Z,101409.94
2019-02-27T04:42:22.936Z,101414.64
2019-02-27T04:42:59.298Z,101412.48
2019-02-27T04:43:35.514Z,101414.22
2019-02-27T04:44:12.587Z,101406.91
2019-02-27T04:44:47.987Z,101415.48
2019-02-27T04:45:23.668Z,101414.61
2019-02-27T04:45:59.076Z,101410.31
2019-02-27T04:46:34.468Z,101410.31
2019-02-27T04:47:10.637Z,101412.05
2019-02-27T04:47:46.012Z,101407.75
2019-02-27T04:48:21.677Z,101406.86
2019-02-27T04:48:57.495Z,101410.30
2019-02-27T04:49:34.786Z,101408.17
2019-02-27T04:50:11.300Z,101405.64
2019-02-27T04:50:47.254Z,101409.48
2019-02-27T04:51:22.664Z,101410.77
2019-02-27T04:51:58.085Z,101403.03
2019-02-27T04:52:33.788Z,101405.58
2019-02-27T04:53:09.490Z,101408.58
2019-02-27T04:53:45.190Z,101408.16
2019-02-27T04:54:20.863Z,101408.52
2019-02-27T04:54:56.243Z,101399.10
2019-02-27T04:55:31.952Z,101405.06
2019-02-27T04:56:07.719Z,101408.91
2019-02-27T04:56:43.651Z,101406.75
2019-02-27T04:57:19.156Z,101408.91
2019-02-27T04:57:54.660Z,101407.23
2019-02-27T04:58:31.385Z,101409.80
2019-02-27T04:59:06.926Z,101411.95
2019-02-27T04:59:42.661Z,101410.24
2019-02-27T05:00:18.050Z,101408.54
2019-02-27T05:00:53.443Z,101409.86
2019-02-27T05:01:28.854Z,101411.12
2019-02-27T05:02:04.332Z,101410.66
2019-02-27T05:02:39.765Z,101409.84
2019-02-27T05:03:15.402Z,101413.70
2019-02-27T05:03:50.895Z,101412.44
2019-02-27T05:04:26.298Z,101409.86
2019-02-27T05:05:02.042Z,101415.83
2019-02-27T05:05:39.120Z,101406.40
2019-02-27T05:06:15.267Z,101411.58
2019-02-27T05:06:50.798Z,101404.31
2019-02-27T05:07:26.773Z,101403.03
2019-02-27T05:08:02.698Z,101409.87
2019-02-27T05:08:39.244Z,101406.03
2019-02-27T05:09:14.647Z,101402.55
2019-02-27T05:09:50.042Z,101404.28
2019-02-27T05:10:25.700Z,101404.68
2019-02-27T05:11:01.177Z,101402.96
2019-02-27T05:11:36.667Z,101402.96
2019-02-27T05:12:12.093Z,101407.66
2019-02-27T05:12:48.165Z,101407.26
2019-02-27T05:13:24.391Z,101406.40
2019-02-27T05:14:00.121Z,101409.38
2019-02-27T05:14:35.859Z,101407.30
2019-02-27T05:15:11.286Z,101410.30
2019-02-27T05:15:47.130Z,101409.03
2019-02-27T05:16:22.534Z,101411.62
2019-02-27T05:16:59.659Z,101404.39
2019-02-27T05:17:35.218Z,101415.08
2019-02-27T05:18:10.622Z,101415.08
2019-02-27T05:18:46.288Z,101412.48
2019-02-27T05:19:21.947Z,101415.05
2019-02-27T05:19:57.887Z,101411.61
2019-02-27T05:20:33.370Z,101407.73
2019-02-27T05:21:09.111Z,101410.75
2019-02-27T05:21:44.532Z,101405.59
2019-02-27T05:22:20.275Z,101417.98
2019-02-27T05:23:00.079Z,101410.68
2019-02-27T05:23:34.180Z,101408.10
2019-02-27T05:24:12.161Z,101408.08
2019-02-27T05:24:47.708Z,101408.52
2019-02-27T05:25:23.103Z,101410.22
2019-02-27T05:25:58.590Z,101410.23
2019-02-27T05:26:34.019Z,101407.66
2019-02-27T05:27:09.431Z,101403.40
2019-02-27T05:27:45.400Z,101404.26
2019-02-27T05:28:20.785Z,101410.23
2019-02-27T05:28:56.193Z,101406.38
2019-02-27T05:29:31.671Z,101411.47
2019-02-27T05:30:07.326Z,101408.03
2019-02-27T05:30:44.721Z,101411.52
2019-02-27T05:31:19.814Z,101404.24
2019-02-27T05:31:55.480Z,101404.66
2019-02-27T05:32:30.954Z,101402.06
2019-02-27T05:33:06.431Z,101408.05
2019-02-27T05:33:41.853Z,101406.33
2019-02-27T05:34:17.325Z,101402.45
2019-02-27T05:34:52.768Z,101407.61
2019-02-27T05:35:28.173Z,101412.30
2019-02-27T05:36:03.985Z,101401.19
2019-02-27T05:36:39.462Z,101411.45
2019-02-27T05:37:15.102Z,101402.89
2019-02-27T05:37:50.542Z,101408.41
2019-02-27T05:38:26.574Z,101406.67
2019-02-27T05:39:02.298Z,101407.59
2019-02-27T05:39:37.951Z,101406.25
2019-02-27T05:40:13.361Z,101410.52
2019-02-27T05:40:49.496Z,101410.50
2019-02-27T05:41:24.968Z,101409.63
2019-02-27T05:42:00.943Z,101404.53
2019-02-27T05:42:38.561Z,101406.23
2019-02-27T05:43:14.054Z,101407.06
2019-02-27T05:43:49.580Z,101399.39
2019-02-27T05:44:25.042Z,101401.95
2019-02-27T05:45:00.477Z,101405.80
2019-02-27T05:45:36.117Z,101404.08
2019-02-27T05:46:11.519Z,101401.09
2019-02-27T05:46:47.212Z,101403.64
2019-02-27T05:47:23.005Z,101407.05
2019-02-27T05:47:58.566Z,101396.77
2019-02-27T05:48:34.260Z,101404.03
2019-02-27T05:49:09.923Z,101402.30
2019-02-27T05:49:45.355Z,101408.27
2019-02-27T05:50:21.043Z,101408.67
2019-02-27T05:50:56.803Z,101401.83
2019-02-27T05:51:32.836Z,101406.47
2019-02-27T05:52:08.504Z,101409.52
2019-02-27T05:52:48.375Z,101410.80
2019-02-27T05:53:22.282Z,101402.17
2019-02-27T05:53:59.117Z,101407.75
2019-02-27T05:54:34.822Z,101406.87
2019-02-27T05:55:10.225Z,101408.95
2019-02-27T05:55:45.903Z,101405.97
2019-02-27T05:56:21.330Z,101409.39
2019-02-27T05:56:56.810Z,101412.34
2019-02-27T05:57:32.940Z,101411.97
2019-02-27T05:58:08.424Z,101404.27
2019-02-27T05:58:44.178Z,101409.87
2019-02-27T05:59:19.848Z,101408.16
2019-02-27T05:59:55.583Z,101407.69
2019-02-27T06:00:31.154Z,101414.15
2019-02-27T06:01:06.588Z,101411.13
2019-02-27T06:01:42.304Z,101406.89
2019-02-27T06:02:17.693Z,101409.44
2019-02-27T06:02:53.643Z,101404.31
2019-02-27T06:03:29.059Z,101408.19
2019-02-27T06:04:04.749Z,101401.39
2019-02-27T06:04:40.411Z,101411.22
2019-02-27T06:05:15.957Z,101406.09
2019-02-27T06:05:51.431Z,101406.95
2019-02-27T06:06:27.197Z,101406.91
2019-02-27T06:07:02.661Z,101405.17
2019-02-27T06:07:38.164Z,101408.59
2019-02-27T06:08:13.911Z,101412.86
2019-02-27T06:08:49.431Z,101411.12
2019-02-27T06:09:24.856Z,101407.23
2019-02-27T06:10:34.431Z,101405.12
2019-02-27T06:11:09.849Z,101405.97
2019-02-27T06:11:45.347Z,101408.16
2019-02-27T06:12:21.094Z,101409.02
2019-02-27T06:12:56.705Z,101399.19
2019-02-27T06:13:32.197Z,101400.05
2019-02-27T06:14:08.059Z,101400.47
2019-02-27T06:14:43.462Z,101406.47
2019-02-27T06:15:18.851Z,101404.79
2019-02-27T06:15:54.636Z,101405.61
2019-02-27T06:16:30.044Z,101399.19
2019-02-27T06:17:05.740Z,101402.59
2019-02-27T06:17:43.639Z,101401.31
2019-02-27T06:18:22.444Z,101400.42
2019-02-27T06:18:56.856Z,101401.27
2019-02-27T06:19:33.627Z,101399.55
2019-02-27T06:20:09.631Z,101404.66
2019-02-27T06:20:45.186Z,101400.40
2019-02-27T06:21:20.602Z,101404.67
2019-02-27T06:21:56.911Z,101400.38
2019-02-27T06:22:32.353Z,101405.09
2019-02-27T06:23:07.853Z,101404.70
2019-02-27T06:23:43.580Z,101408.11
2019-02-27T06:24:19.211Z,101408.55
2019-02-27T06:24:54.883Z,101408.11
2019-02-27T06:25:30.272Z,101408.56
2019-02-27T06:26:05.695Z,101401.27
2019-02-27T06:26:41.381Z,101411.51
2019-02-27T06:27:17.097Z,101408.08
2019-02-27T06:27:52.546Z,101409.31
2019-02-27T06:28:27.975Z,101399.03
2019-02-27T06:29:03.399Z,101406.34
2019-02-27T06:29:38.880Z,101407.22
2019-02-27T06:30:16.200Z,101405.03
2019-02-27T06:30:52.251Z,101410.15
2019-02-27T06:31:27.644Z,101400.28
2019-02-27T06:32:03.404Z,101407.56
2019-02-27T06:32:39.332Z,101401.55
2019-02-27T06:33:15.041Z,101405.89
2019-02-27T06:33:50.979Z,101405.89
2019-02-27T06:34:26.502Z,101401.17
2019-02-27T06:35:01.909Z,101404.62
2019-02-27T06:35:37.344Z,101405.02
2019-02-27T06:36:12.839Z,101405.89
2019-02-27T06:36:48.273Z,101404.64
2019-02-27T06:37:24.096Z,101404.64
2019-02-27T06:37:59.498Z,101398.66
2019-02-27T06:38:34.912Z,101399.94
2019-02-27T06:39:12.142Z,101403.80
2019-02-27T06:39:49.743Z,101399.94
2019-02-27T06:40:25.827Z,101402.94
2019-02-27T06:41:01.245Z,101401.64
2019-02-27T06:41:37.204Z,101404.26
2019-02-27T06:42:12.769Z,101406.81
2019-02-27T06:42:53.417Z,101405.52
2019-02-27T06:43:27.941Z,101402.13
2019-02-27T06:44:03.351Z,101401.26
2019-02-27T06:44:39.870Z,101399.55
2019-02-27T06:45:16.301Z,101396.54
2019-02-27T06:45:54.207Z,101400.84
2019-02-27T06:46:30.565Z,101408.11
2019-02-27T06:47:07.190Z,101402.52
2019-02-27T06:47:43.914Z,101411.51
2019-02-27T06:48:19.352Z,101402.56
2019-02-27T06:48:56.440Z,101408.98
2019-02-27T06:49:32.688Z,101404.30
2019-02-27T06:50:11.962Z,101406.87
2019-02-27T06:50:47.404Z,101406.45
2019-02-27T06:51:22.811Z,101409.89
2019-02-27T06:51:58.214Z,101407.81
2019-02-27T06:52:33.657Z,101405.23
2019-02-27T06:53:09.145Z,101409.08
2019-02-27T06:53:44.837Z,101408.67
2019-02-27T06:54:20.255Z,101406.08
2019-02-27T06:54:56.251Z,101406.08
2019-02-27T06:55:33.755Z,101410.37
2019-02-27T06:56:08.849Z,101410.36
2019-02-27T06:56:44.233Z,101407.80
2019-02-27T06:57:19.619Z,101401.83
2019-02-27T06:57:55.294Z,101406.52
2019-02-27T06:58:31.136Z,101408.66
2019-02-27T06:59:06.899Z,101413.42
2019-02-27T06:59:42.932Z,101416.38
2019-02-27T07:00:19.346Z,101416.44
2019-02-27T07:00:54.852Z,101418.16
2019-02-27T07:01:30.388Z,101407.50
2019-02-27T07:02:05.807Z,101416.45
2019-02-27T07:02:41.618Z,101417.72
2019-02-27T07:03:17.011Z,101415.60
2019-02-27T07:03:52.545Z,101418.59
2019-02-27T07:04:27.939Z,101410.06
2019-02-27T07:05:03.421Z,101415.23
2019-02-27T07:05:39.364Z,101408.38
2019-02-27T07:06:14.782Z,101413.09
2019-02-27T07:06:50.212Z,101413.96
2019-02-27T07:07:25.747Z,101411.03
2019-02-27T07:08:02.181Z,101411.88
2019-02-27T07:08:38.772Z,101408.03
2019-02-27T07:09:14.312Z,101404.23
2019-02-27T07:09:50.283Z,101407.26
2019-02-27T07:10:25.763Z,101407.66
2019-02-27T07:11:10.328Z,101404.70
2019-02-27T07:11:38.692Z,101403.92
2019-02-27T07:12:14.727Z,101404.78
2019-02-27T07:12:54.367Z,101411.61
2019-02-27T07:13:29.894Z,101409.06
2019-02-27T07:14:04.710Z,101406.06
2019-02-27T07:14:40.143Z,101413.34
2019-02-27T07:15:17.189Z,101412.50
2019-02-27T07:15:52.936Z,101410.37
2019-02-27T07:16:28.425Z,101404.42
2019-02-27T07:17:04.005Z,101406.56
2019-02-27T07:17:39.692Z,101406.13
2019-02-27T07:18:15.089Z,101410.39
2019-02-27T07:18:50.748Z,101404.42
2019-02-27T07:19:26.149Z,101406.13
2019-02-27T07:20:01.623Z,101400.56
2019-02-27T07:20:37.134Z,101406.97
2019-02-27T07:21:12.794Z,101402.27
2019-02-27T07:21:48.206Z,101402.27
2019-02-27T07:22:23.700Z,101402.27
2019-02-27T07:22:59.451Z,101398.87
2019-02-27T07:23:35.310Z,101396.76
2019-02-27T07:24:10.802Z,101398.90
2019-02-27T07:24:46.802Z,101397.62
2019-02-27T07:25:22.562Z,101394.60
2019-02-27T07:25:58.033Z,101396.76
2019-02-27T07:26:33.501Z,101392.02
2019-02-27T07:27:09.214Z,101392.47
2019-02-27T07:27:44.872Z,101389.91
2019-02-27T07:28:20.328Z,101393.33
2019-02-27T07:28:56.296Z,101396.78
2019-02-27T07:29:32.059Z,101393.34
2019-02-27T07:30:10.000Z,101393.32
2019-02-27T07:30:45.781Z,101394.16
2019-02-27T07:31:23.327Z,101393.34
2019-02-27T07:31:58.473Z,101386.06
2019-02-27T07:32:34.214Z,101395.05
2019-02-27T07:33:09.625Z,101393.78
2019-02-27T07:33:47.163Z,101388.67
2019-02-27T07:34:22.880Z,101395.59
2019-02-27T07:34:58.537Z,101388.77
2019-02-27T07:35:33.946Z,101390.86
2019-02-27T07:36:09.398Z,101393.86
2019-02-27T07:36:45.113Z,101389.16
2019-02-27T07:37:20.646Z,101387.88
2019-02-27T07:37:56.327Z,101388.74
2019-02-27T07:38:31.831Z,101387.89
2019-02-27T07:39:07.402Z,101393.45
2019-02-27T07:39:42.827Z,101384.89
2019-02-27T07:40:18.518Z,101385.77
2019-02-27T07:40:53.913Z,101381.48
2019-02-27T07:41:29.555Z,101383.63
2019-02-27T07:42:05.381Z,101381.49
2019-02-27T07:42:40.851Z,101382.36
2019-02-27T07:43:16.334Z,101385.33
2019-02-27T07:43:51.774Z,101379.78
2019-02-27T07:44:27.204Z,101376.78